Avondale, Washington
Current Conditions -  °F | °C
As of 9:53 AM on Friday 31 Oct 2014 (Local Time) from KBFI Reporting Station
Light Rain Light Rain  
Wind Chill: 54°   Ceiling: 1200
Heat Index: 54°   Visibility: 4mi
Dew Point: 49°   Wind: 3mph
Humidity: 83%   Direction: 330°NNW
Pressure: 29.77"   Gusts: NA
Location:  47.6833°N, 122.123°W
Report Text: KBFI 311653Z 33003KT 4SM -RA BKN012 OVC039 12/09 A2977 RMK AO2 SLP082 P0011 T01220094
Loading
Personal Weather Stations






























Interactive Weather Map
Tropical Storm Tracking
New forecast layout! Learn more

10-Day Weather Forecast

Advertisements
Track Severe Weather on mobile